sensor_id;sensor_type;location;lat;lon;timestamp;P1;durP1;ratioP1;P2;durP2;ratioP2
20657;SDS011;10488;50.846;4.078;2023-03-23T00:01:16;8.18;;;4.90;;
20657;SDS011;10488;50.846;4.078;2023-03-23T00:03:45;7.28;;;5.35;;
20657;SDS011;10488;50.846;4.078;2023-03-23T00:06:12;7.10;;;5.20;;
20657;SDS011;10488;50.846;4.078;2023-03-23T00:08:42;8.65;;;4.47;;
20657;SDS011;10488;50.846;4.078;2023-03-23T00:11:12;7.45;;;5.15;;
20657;SDS011;10488;50.846;4.078;2023-03-23T00:13:40;7.18;;;4.80;;
20657;SDS011;10488;50.846;4.078;2023-03-23T00:16:07;7.20;;;4.95;;
20657;SDS011;10488;50.846;4.078;2023-03-23T00:18:49;6.70;;;4.32;;
20657;SDS011;10488;50.846;4.078;2023-03-23T00:21:19;9.73;;;4.88;;
20657;SDS011;10488;50.846;4.078;2023-03-23T00:23:45;8.07;;;5.35;;
20657;SDS011;10488;50.846;4.078;2023-03-23T00:26:11;9.23;;;5.00;;
20657;SDS011;10488;50.846;4.078;2023-03-23T00:28:38;10.75;;;5.85;;
20657;SDS011;10488;50.846;4.078;2023-03-23T00:31:06;5.30;;;4.30;;
20657;SDS011;10488;50.846;4.078;2023-03-23T00:33:33;8.27;;;5.10;;
20657;SDS011;10488;50.846;4.078;2023-03-23T00:36:03;9.80;;;5.50;;
20657;SDS011;10488;50.846;4.078;2023-03-23T00:38:30;7.22;;;4.80;;
20657;SDS011;10488;50.846;4.078;2023-03-23T00:40:56;8.63;;;5.05;;
20657;SDS011;10488;50.846;4.078;2023-03-23T00:43:22;8.20;;;4.82;;
20657;SDS011;10488;50.846;4.078;2023-03-23T00:45:49;8.15;;;4.82;;
20657;SDS011;10488;50.846;4.078;2023-03-23T00:48:17;9.40;;;4.50;;
20657;SDS011;10488;50.846;4.078;2023-03-23T00:50:48;5.63;;;3.92;;
20657;SDS011;10488;50.846;4.078;2023-03-23T00:53:15;5.18;;;3.67;;
20657;SDS011;10488;50.846;4.078;2023-03-23T00:55:46;6.68;;;3.80;;
20657;SDS011;10488;50.846;4.078;2023-03-23T00:58:13;4.22;;;3.80;;
20657;SDS011;10488;50.846;4.078;2023-03-23T01:00:39;8.48;;;3.88;;
20657;SDS011;10488;50.846;4.078;2023-03-23T01:03:05;5.75;;;4.03;;
20657;SDS011;10488;50.846;4.078;2023-03-23T01:05:36;5.43;;;4.07;;
20657;SDS011;10488;50.846;4.078;2023-03-23T01:08:02;4.75;;;4.07;;
20657;SDS011;10488;50.846;4.078;2023-03-23T01:10:29;6.30;;;3.67;;
20657;SDS011;10488;50.846;4.078;2023-03-23T01:12:58;4.55;;;4.00;;
20657;SDS011;10488;50.846;4.078;2023-03-23T01:15:25;3.95;;;3.55;;
20657;SDS011;10488;50.846;4.078;2023-03-23T01:17:53;6.78;;;3.72;;
20657;SDS011;10488;50.846;4.078;2023-03-23T01:20:18;9.43;;;3.92;;
20657;SDS011;10488;50.846;4.078;2023-03-23T01:22:44;4.68;;;3.40;;
20657;SDS011;10488;50.846;4.078;2023-03-23T01:25:10;5.45;;;3.42;;
20657;SDS011;10488;50.846;4.078;2023-03-23T01:27:38;5.63;;;3.47;;
20657;SDS011;10488;50.846;4.078;2023-03-23T01:30:04;5.40;;;3.60;;
20657;SDS011;10488;50.846;4.078;2023-03-23T01:32:31;4.63;;;3.47;;
20657;SDS011;10488;50.846;4.078;2023-03-23T01:34:57;8.45;;;3.95;;
20657;SDS011;10488;50.846;4.078;2023-03-23T01:37:23;4.70;;;3.72;;
20657;SDS011;10488;50.846;4.078;2023-03-23T01:39:54;3.95;;;3.13;;
20657;SDS011;10488;50.846;4.078;2023-03-23T01:42:24;6.75;;;3.85;;
20657;SDS011;10488;50.846;4.078;2023-03-23T01:47:17;4.63;;;3.22;;
20657;SDS011;10488;50.846;4.078;2023-03-23T01:49:48;4.22;;;3.08;;
20657;SDS011;10488;50.846;4.078;2023-03-23T01:52:22;5.78;;;3.10;;
20657;SDS011;10488;50.846;4.078;2023-03-23T01:54:50;4.47;;;3.08;;
20657;SDS011;10488;50.846;4.078;2023-03-23T01:57:19;2.60;;;2.35;;
20657;SDS011;10488;50.846;4.078;2023-03-23T01:59:47;2.88;;;2.42;;
20657;SDS011;10488;50.846;4.078;2023-03-23T02:02:16;4.47;;;2.67;;
20657;SDS011;10488;50.846;4.078;2023-03-23T02:04:42;5.22;;;2.25;;
20657;SDS011;10488;50.846;4.078;2023-03-23T02:07:09;6.68;;;2.30;;
20657;SDS011;10488;50.846;4.078;2023-03-23T02:09:37;4.28;;;2.35;;
20657;SDS011;10488;50.846;4.078;2023-03-23T02:12:02;3.97;;;2.10;;
20657;SDS011;10488;50.846;4.078;2023-03-23T02:14:28;3.28;;;1.45;;
20657;SDS011;10488;50.846;4.078;2023-03-23T02:34:22;4.47;;;1.65;;
20657;SDS011;10488;50.846;4.078;2023-03-23T02:37:35;6.55;;;1.90;;
20657;SDS011;10488;50.846;4.078;2023-03-23T02:40:08;5.68;;;1.70;;
20657;SDS011;10488;50.846;4.078;2023-03-23T02:42:41;3.40;;;1.55;;
20657;SDS011;10488;50.846;4.078;2023-03-23T02:45:10;3.40;;;1.48;;
20657;SDS011;10488;50.846;4.078;2023-03-23T02:47:38;5.10;;;2.00;;
20657;SDS011;10488;50.846;4.078;2023-03-23T02:50:07;5.25;;;1.60;;
20657;SDS011;10488;50.846;4.078;2023-03-23T02:52:36;3.80;;;1.63;;
20657;SDS011;10488;50.846;4.078;2023-03-23T02:55:04;4.05;;;1.60;;
20657;SDS011;10488;50.846;4.078;2023-03-23T02:57:31;3.60;;;1.67;;
20657;SDS011;10488;50.846;4.078;2023-03-23T02:59:57;5.25;;;1.50;;
20657;SDS011;10488;50.846;4.078;2023-03-23T03:02:36;3.35;;;1.80;;
20657;SDS011;10488;50.846;4.078;2023-03-23T03:05:10;3.17;;;1.50;;
20657;SDS011;10488;50.846;4.078;2023-03-23T03:13:30;2.55;;;1.70;;
20657;SDS011;10488;50.846;4.078;2023-03-23T03:16:24;5.32;;;1.70;;
20657;SDS011;10488;50.846;4.078;2023-03-23T03:19:05;2.80;;;1.35;;
20657;SDS011;10488;50.846;4.078;2023-03-23T03:21:36;6.15;;;1.48;;
20657;SDS011;10488;50.846;4.078;2023-03-23T03:24:06;6.88;;;2.35;;
20657;SDS011;10488;50.846;4.078;2023-03-23T03:26:36;5.10;;;1.30;;
20657;SDS011;10488;50.846;4.078;2023-03-23T03:29:06;4.22;;;1.42;;
20657;SDS011;10488;50.846;4.078;2023-03-23T03:31:34;6.30;;;1.70;;
20657;SDS011;10488;50.846;4.078;2023-03-23T03:34:03;2.72;;;1.15;;
20657;SDS011;10488;50.846;4.078;2023-03-23T03:36:30;4.43;;;1.33;;
20657;SDS011;10488;50.846;4.078;2023-03-23T03:38:59;3.97;;;1.48;;
20657;SDS011;10488;50.846;4.078;2023-03-23T03:41:33;7.20;;;1.70;;
20657;SDS011;10488;50.846;4.078;2023-03-23T03:44:00;3.35;;;1.40;;
20657;SDS011;10488;50.846;4.078;2023-03-23T03:46:26;4.22;;;1.17;;
20657;SDS011;10488;50.846;4.078;2023-03-23T03:48:54;4.47;;;1.35;;
20657;SDS011;10488;50.846;4.078;2023-03-23T03:51:24;5.70;;;1.77;;
20657;SDS011;10488;50.846;4.078;2023-03-23T03:53:52;5.97;;;1.90;;
20657;SDS011;10488;50.846;4.078;2023-03-23T03:56:18;7.72;;;1.60;;
20657;SDS011;10488;50.846;4.078;2023-03-23T03:58:45;5.18;;;1.55;;
20657;SDS011;10488;50.846;4.078;2023-03-23T04:01:11;6.90;;;2.22;;
20657;SDS011;10488;50.846;4.078;2023-03-23T04:03:37;4.20;;;1.50;;
20657;SDS011;10488;50.846;4.078;2023-03-23T04:06:03;3.97;;;1.65;;
20657;SDS011;10488;50.846;4.078;2023-03-23T04:08:29;5.25;;;1.30;;
20657;SDS011;10488;50.846;4.078;2023-03-23T04:10:56;6.03;;;1.92;;
20657;SDS011;10488;50.846;4.078;2023-03-23T04:13:22;6.97;;;2.10;;
20657;SDS011;10488;50.846;4.078;2023-03-23T04:15:48;6.93;;;1.55;;
20657;SDS011;10488;50.846;4.078;2023-03-23T04:18:14;4.00;;;1.60;;
20657;SDS011;10488;50.846;4.078;2023-03-23T04:20:42;6.03;;;1.92;;
20657;SDS011;10488;50.846;4.078;2023-03-23T04:23:15;4.35;;;1.60;;
20657;SDS011;10488;50.846;4.078;2023-03-23T04:25:47;6.50;;;1.80;;
20657;SDS011;10488;50.846;4.078;2023-03-23T04:28:14;5.60;;;1.40;;
20657;SDS011;10488;50.846;4.078;2023-03-23T04:30:41;7.78;;;1.23;;
20657;SDS011;10488;50.846;4.078;2023-03-23T04:33:08;9.25;;;1.50;;
20657;SDS011;10488;50.846;4.078;2023-03-23T04:35:39;4.97;;;1.65;;
20657;SDS011;10488;50.846;4.078;2023-03-23T04:38:11;4.60;;;1.38;;
20657;SDS011;10488;50.846;4.078;2023-03-23T04:40:39;8.60;;;1.75;;
20657;SDS011;10488;50.846;4.078;2023-03-23T04:43:05;5.93;;;1.88;;
20657;SDS011;10488;50.846;4.078;2023-03-23T04:45:33;3.97;;;1.30;;
20657;SDS011;10488;50.846;4.078;2023-03-23T04:47:59;5.85;;;1.80;;
20657;SDS011;10488;50.846;4.078;2023-03-23T04:50:29;6.20;;;1.48;;
20657;SDS011;10488;50.846;4.078;2023-03-23T04:52:56;4.55;;;1.75;;
20657;SDS011;10488;50.846;4.078;2023-03-23T04:55:25;6.80;;;1.55;;
20657;SDS011;10488;50.846;4.078;2023-03-23T04:57:51;4.60;;;1.70;;
20657;SDS011;10488;50.846;4.078;2023-03-23T05:00:18;5.85;;;1.60;;
20657;SDS011;10488;50.846;4.078;2023-03-23T05:02:46;4.50;;;1.55;;
20657;SDS011;10488;50.846;4.078;2023-03-23T05:05:12;7.38;;;2.03;;
20657;SDS011;10488;50.846;4.078;2023-03-23T05:07:39;5.38;;;1.23;;
20657;SDS011;10488;50.846;4.078;2023-03-23T05:10:06;5.90;;;1.42;;
20657;SDS011;10488;50.846;4.078;2023-03-23T05:12:34;7.05;;;2.05;;
20657;SDS011;10488;50.846;4.078;2023-03-23T05:15:00;9.70;;;1.40;;
20657;SDS011;10488;50.846;4.078;2023-03-23T05:17:26;3.50;;;1.55;;
20657;SDS011;10488;50.846;4.078;2023-03-23T05:19:52;6.13;;;1.45;;
20657;SDS011;10488;50.846;4.078;2023-03-23T05:22:19;9.68;;;1.85;;
20657;SDS011;10488;50.846;4.078;2023-03-23T05:24:46;5.38;;;1.40;;
20657;SDS011;10488;50.846;4.078;2023-03-23T05:27:12;6.25;;;1.77;;
20657;SDS011;10488;50.846;4.078;2023-03-23T05:29:39;9.90;;;1.58;;
20657;SDS011;10488;50.846;4.078;2023-03-23T05:32:06;9.07;;;1.70;;
20657;SDS011;10488;50.846;4.078;2023-03-23T05:34:33;5.40;;;1.60;;
20657;SDS011;10488;50.846;4.078;2023-03-23T05:36:59;6.03;;;1.40;;
20657;SDS011;10488;50.846;4.078;2023-03-23T05:39:27;2.85;;;1.40;;
20657;SDS011;10488;50.846;4.078;2023-03-23T05:41:53;7.50;;;1.60;;
20657;SDS011;10488;50.846;4.078;2023-03-23T05:44:19;7.55;;;1.80;;
20657;SDS011;10488;50.846;4.078;2023-03-23T05:46:45;5.60;;;2.05;;
20657;SDS011;10488;50.846;4.078;2023-03-23T05:49:11;9.57;;;1.85;;
20657;SDS011;10488;50.846;4.078;2023-03-23T05:51:37;8.07;;;1.25;;
20657;SDS011;10488;50.846;4.078;2023-03-23T05:54:03;5.90;;;1.48;;
20657;SDS011;10488;50.846;4.078;2023-03-23T05:56:28;3.95;;;1.48;;
20657;SDS011;10488;50.846;4.078;2023-03-23T05:58:56;5.75;;;1.33;;
20657;SDS011;10488;50.846;4.078;2023-03-23T06:01:25;6.63;;;1.75;;
20657;SDS011;10488;50.846;4.078;2023-03-23T06:03:52;5.65;;;1.42;;
20657;SDS011;10488;50.846;4.078;2023-03-23T06:06:19;5.38;;;1.55;;
20657;SDS011;10488;50.846;4.078;2023-03-23T06:08:45;5.25;;;1.65;;
20657;SDS011;10488;50.846;4.078;2023-03-23T06:11:11;7.88;;;2.00;;
20657;SDS011;10488;50.846;4.078;2023-03-23T06:13:38;9.75;;;2.17;;
20657;SDS011;10488;50.846;4.078;2023-03-23T06:16:04;8.68;;;1.80;;
20657;SDS011;10488;50.846;4.078;2023-03-23T06:18:30;7.43;;;1.80;;
20657;SDS011;10488;50.846;4.078;2023-03-23T06:20:59;7.28;;;1.67;;
20657;SDS011;10488;50.846;4.078;2023-03-23T06:23:26;10.18;;;1.65;;
20657;SDS011;10488;50.846;4.078;2023-03-23T06:25:58;9.63;;;1.95;;
20657;SDS011;10488;50.846;4.078;2023-03-23T06:28:27;5.10;;;0.98;;
20657;SDS011;10488;50.846;4.078;2023-03-23T06:30:53;6.28;;;0.95;;
20657;SDS011;10488;50.846;4.078;2023-03-23T06:33:19;5.38;;;0.80;;
20657;SDS011;10488;50.846;4.078;2023-03-23T06:35:45;2.63;;;1.25;;
20657;SDS011;10488;50.846;4.078;2023-03-23T06:38:10;2.30;;;0.70;;
20657;SDS011;10488;50.846;4.078;2023-03-23T06:40:37;7.90;;;1.10;;
20657;SDS011;10488;50.846;4.078;2023-03-23T06:43:03;3.92;;;0.95;;
20657;SDS011;10488;50.846;4.078;2023-03-23T06:45:29;4.53;;;1.02;;
20657;SDS011;10488;50.846;4.078;2023-03-23T06:47:55;4.82;;;1.02;;
20657;SDS011;10488;50.846;4.078;2023-03-23T06:50:44;8.25;;;1.52;;
20657;SDS011;10488;50.846;4.078;2023-03-23T06:53:09;8.18;;;1.10;;
20657;SDS011;10488;50.846;4.078;2023-03-23T06:55:35;4.40;;;0.80;;
20657;SDS011;10488;50.846;4.078;2023-03-23T06:58:03;2.40;;;0.95;;
20657;SDS011;10488;50.846;4.078;2023-03-23T07:00:30;6.07;;;0.90;;
20657;SDS011;10488;50.846;4.078;2023-03-23T07:02:57;2.58;;;0.98;;
20657;SDS011;10488;50.846;4.078;2023-03-23T07:05:23;4.32;;;0.82;;
20657;SDS011;10488;50.846;4.078;2023-03-23T07:07:49;3.55;;;0.80;;
20657;SDS011;10488;50.846;4.078;2023-03-23T07:10:15;3.50;;;1.00;;
20657;SDS011;10488;50.846;4.078;2023-03-23T07:12:41;2.78;;;0.90;;
20657;SDS011;10488;50.846;4.078;2023-03-23T07:15:07;5.90;;;1.33;;
20657;SDS011;10488;50.846;4.078;2023-03-23T07:17:36;6.05;;;2.00;;
20657;SDS011;10488;50.846;4.078;2023-03-23T07:20:02;3.90;;;2.13;;
20657;SDS011;10488;50.846;4.078;2023-03-23T07:22:30;6.10;;;3.15;;
20657;SDS011;10488;50.846;4.078;2023-03-23T07:24:56;3.45;;;2.17;;
20657;SDS011;10488;50.846;4.078;2023-03-23T07:27:22;3.60;;;1.85;;
20657;SDS011;10488;50.846;4.078;2023-03-23T07:29:47;5.28;;;1.67;;
20657;SDS011;10488;50.846;4.078;2023-03-23T07:32:13;6.40;;;1.73;;
20657;SDS011;10488;50.846;4.078;2023-03-23T07:34:39;7.22;;;1.55;;
20657;SDS011;10488;50.846;4.078;2023-03-23T07:37:05;7.10;;;2.17;;
20657;SDS011;10488;50.846;4.078;2023-03-23T07:39:31;3.90;;;1.60;;
20657;SDS011;10488;50.846;4.078;2023-03-23T07:41:58;7.63;;;1.90;;
20657;SDS011;10488;50.846;4.078;2023-03-23T07:44:24;9.05;;;2.25;;
20657;SDS011;10488;50.846;4.078;2023-03-23T07:46:50;3.17;;;1.52;;
20657;SDS011;10488;50.846;4.078;2023-03-23T07:49:16;4.32;;;1.42;;
20657;SDS011;10488;50.846;4.078;2023-03-23T07:51:42;4.13;;;1.27;;
20657;SDS011;10488;50.846;4.078;2023-03-23T07:54:08;4.65;;;1.02;;
20657;SDS011;10488;50.846;4.078;2023-03-23T07:56:34;5.93;;;1.50;;
20657;SDS011;10488;50.846;4.078;2023-03-23T07:59:00;4.25;;;1.13;;
20657;SDS011;10488;50.846;4.078;2023-03-23T08:01:27;7.43;;;1.38;;
20657;SDS011;10488;50.846;4.078;2023-03-23T08:03:54;9.63;;;1.50;;
20657;SDS011;10488;50.846;4.078;2023-03-23T08:06:22;4.10;;;1.08;;
20657;SDS011;10488;50.846;4.078;2023-03-23T08:08:49;3.78;;;0.95;;
20657;SDS011;10488;50.846;4.078;2023-03-23T08:11:16;1.85;;;0.80;;
20657;SDS011;10488;50.846;4.078;2023-03-23T08:13:42;3.78;;;1.02;;
20657;SDS011;10488;50.846;4.078;2023-03-23T08:16:08;1.35;;;0.90;;
20657;SDS011;10488;50.846;4.078;2023-03-23T08:18:35;5.03;;;1.13;;
20657;SDS011;10488;50.846;4.078;2023-03-23T08:21:03;2.33;;;0.98;;
20657;SDS011;10488;50.846;4.078;2023-03-23T08:23:30;4.60;;;1.40;;
20657;SDS011;10488;50.846;4.078;2023-03-23T08:25:56;4.15;;;1.17;;
20657;SDS011;10488;50.846;4.078;2023-03-23T08:28:22;6.80;;;1.20;;
20657;SDS011;10488;50.846;4.078;2023-03-23T08:30:48;8.02;;;1.40;;
20657;SDS011;10488;50.846;4.078;2023-03-23T08:33:15;9.27;;;2.17;;
20657;SDS011;10488;50.846;4.078;2023-03-23T08:35:41;6.10;;;1.40;;
20657;SDS011;10488;50.846;4.078;2023-03-23T08:38:08;5.15;;;1.40;;
20657;SDS011;10488;50.846;4.078;2023-03-23T08:40:35;2.05;;;0.73;;
20657;SDS011;10488;50.846;4.078;2023-03-23T08:43:01;2.97;;;1.05;;
20657;SDS011;10488;50.846;4.078;2023-03-23T08:45:27;11.82;;;2.05;;
20657;SDS011;10488;50.846;4.078;2023-03-23T08:47:54;5.13;;;1.30;;
20657;SDS011;10488;50.846;4.078;2023-03-23T08:50:24;6.20;;;1.10;;
20657;SDS011;10488;50.846;4.078;2023-03-23T08:52:52;5.45;;;1.55;;
20657;SDS011;10488;50.846;4.078;2023-03-23T08:55:20;4.97;;;1.17;;
20657;SDS011;10488;50.846;4.078;2023-03-23T08:57:46;3.92;;;1.27;;
20657;SDS011;10488;50.846;4.078;2023-03-23T09:00:17;4.18;;;1.08;;
20657;SDS011;10488;50.846;4.078;2023-03-23T09:02:48;4.45;;;1.20;;
20657;SDS011;10488;50.846;4.078;2023-03-23T09:05:16;2.45;;;1.00;;
20657;SDS011;10488;50.846;4.078;2023-03-23T09:07:45;1.40;;;0.90;;
20657;SDS011;10488;50.846;4.078;2023-03-23T09:10:13;3.22;;;1.35;;
20657;SDS011;10488;50.846;4.078;2023-03-23T09:12:40;4.43;;;1.10;;
20657;SDS011;10488;50.846;4.078;2023-03-23T09:15:07;3.78;;;1.35;;
20657;SDS011;10488;50.846;4.078;2023-03-23T09:17:41;6.90;;;1.85;;
20657;SDS011;10488;50.846;4.078;2023-03-23T09:20:09;3.72;;;1.40;;
20657;SDS011;10488;50.846;4.078;2023-03-23T09:22:40;4.88;;;1.65;;
20657;SDS011;10488;50.846;4.078;2023-03-23T09:25:14;2.00;;;1.10;;
20657;SDS011;10488;50.846;4.078;2023-03-23T09:27:44;2.22;;;0.90;;
20657;SDS011;10488;50.846;4.078;2023-03-23T09:30:12;3.53;;;0.98;;
20657;SDS011;10488;50.846;4.078;2023-03-23T09:32:39;3.75;;;1.13;;
20657;SDS011;10488;50.846;4.078;2023-03-23T09:35:08;6.93;;;1.08;;
20657;SDS011;10488;50.846;4.078;2023-03-23T09:37:36;1.80;;;1.13;;
20657;SDS011;10488;50.846;4.078;2023-03-23T09:40:03;2.10;;;1.10;;
20657;SDS011;10488;50.846;4.078;2023-03-23T09:42:36;3.25;;;1.13;;
20657;SDS011;10488;50.846;4.078;2023-03-23T09:51:11;2.05;;;1.30;;
20657;SDS011;10488;50.846;4.078;2023-03-23T09:53:48;1.70;;;1.20;;
20657;SDS011;10488;50.846;4.078;2023-03-23T09:56:29;4.25;;;1.65;;
20657;SDS011;10488;50.846;4.078;2023-03-23T09:59:09;3.20;;;1.40;;
20657;SDS011;10488;50.846;4.078;2023-03-23T10:02:01;2.95;;;1.27;;
20657;SDS011;10488;50.846;4.078;2023-03-23T10:04:47;4.82;;;1.52;;
20657;SDS011;10488;50.846;4.078;2023-03-23T10:07:18;8.73;;;1.40;;
20657;SDS011;10488;50.846;4.078;2023-03-23T10:09:47;5.80;;;1.90;;
20657;SDS011;10488;50.846;4.078;2023-03-23T10:22:20;3.25;;;1.38;;
20657;SDS011;10488;50.846;4.078;2023-03-23T10:25:03;2.58;;;1.50;;
20657;SDS011;10488;50.846;4.078;2023-03-23T10:30:25;3.22;;;1.35;;
20657;SDS011;10488;50.846;4.078;2023-03-23T10:33:42;6.68;;;1.70;;
20657;SDS011;10488;50.846;4.078;2023-03-23T10:36:06;2.97;;;1.40;;
20657;SDS011;10488;50.846;4.078;2023-03-23T10:38:42;5.60;;;1.80;;
20657;SDS011;10488;50.846;4.078;2023-03-23T10:41:19;2.67;;;1.27;;
20657;SDS011;10488;50.846;4.078;2023-03-23T10:43:47;7.28;;;1.95;;
20657;SDS011;10488;50.846;4.078;2023-03-23T10:48:58;10.27;;;2.40;;
20657;SDS011;10488;50.846;4.078;2023-03-23T10:51:32;9.90;;;2.65;;
20657;SDS011;10488;50.846;4.078;2023-03-23T10:54:01;7.18;;;1.75;;
20657;SDS011;10488;50.846;4.078;2023-03-23T10:56:34;9.20;;;2.35;;
20657;SDS011;10488;50.846;4.078;2023-03-23T10:59:10;11.80;;;2.72;;
20657;SDS011;10488;50.846;4.078;2023-03-23T11:01:37;10.95;;;2.63;;
20657;SDS011;10488;50.846;4.078;2023-03-23T11:04:10;8.25;;;2.10;;
20657;SDS011;10488;50.846;4.078;2023-03-23T11:06:43;5.50;;;2.25;;
20657;SDS011;10488;50.846;4.078;2023-03-23T11:09:18;5.28;;;2.30;;
20657;SDS011;10488;50.846;4.078;2023-03-23T11:11:53;4.75;;;1.88;;
20657;SDS011;10488;50.846;4.078;2023-03-23T11:14:33;7.10;;;1.95;;
20657;SDS011;10488;50.846;4.078;2023-03-23T11:17:04;7.20;;;1.92;;
20657;SDS011;10488;50.846;4.078;2023-03-23T11:19:44;8.52;;;2.97;;
20657;SDS011;10488;50.846;4.078;2023-03-23T11:22:15;8.73;;;2.05;;
20657;SDS011;10488;50.846;4.078;2023-03-23T11:24:53;7.57;;;2.45;;
20657;SDS011;10488;50.846;4.078;2023-03-23T11:27:20;9.40;;;2.28;;
20657;SDS011;10488;50.846;4.078;2023-03-23T11:29:55;6.88;;;2.42;;
20657;SDS011;10488;50.846;4.078;2023-03-23T11:32:26;5.22;;;2.53;;
20657;SDS011;10488;50.846;4.078;2023-03-23T11:34:57;6.43;;;2.17;;
20657;SDS011;10488;50.846;4.078;2023-03-23T11:42:35;6.28;;;2.30;;
20657;SDS011;10488;50.846;4.078;2023-03-23T11:58:52;4.97;;;1.42;;
20657;SDS011;10488;50.846;4.078;2023-03-23T12:09:34;5.65;;;1.50;;
20657;SDS011;10488;50.846;4.078;2023-03-23T12:20:32;6.30;;;1.98;;
20657;SDS011;10488;50.846;4.078;2023-03-23T12:26:15;7.30;;;1.75;;
20657;SDS011;10488;50.846;4.078;2023-03-23T12:31:56;10.20;;;1.98;;
20657;SDS011;10488;50.846;4.078;2023-03-23T12:34:38;7.10;;;1.65;;
20657;SDS011;10488;50.846;4.078;2023-03-23T12:39:49;7.22;;;2.33;;
20657;SDS011;10488;50.846;4.078;2023-03-23T12:42:54;7.68;;;1.75;;
20657;SDS011;10488;50.846;4.078;2023-03-23T12:48:09;7.05;;;1.63;;
20657;SDS011;10488;50.846;4.078;2023-03-23T12:50:40;7.03;;;1.77;;
20657;SDS011;10488;50.846;4.078;2023-03-23T12:53:11;2.83;;;1.33;;
20657;SDS011;10488;50.846;4.078;2023-03-23T12:58:37;3.70;;;1.27;;
20657;SDS011;10488;50.846;4.078;2023-03-23T13:01:10;6.47;;;1.83;;
20657;SDS011;10488;50.846;4.078;2023-03-23T13:06:42;9.23;;;1.95;;
20657;SDS011;10488;50.846;4.078;2023-03-23T13:11:51;11.00;;;2.05;;
20657;SDS011;10488;50.846;4.078;2023-03-23T13:28:21;9.77;;;2.95;;
20657;SDS011;10488;50.846;4.078;2023-03-23T13:30:55;9.25;;;2.05;;
20657;SDS011;10488;50.846;4.078;2023-03-23T13:33:22;8.27;;;1.85;;
20657;SDS011;10488;50.846;4.078;2023-03-23T13:35:49;5.18;;;2.00;;
20657;SDS011;10488;50.846;4.078;2023-03-23T13:38:25;6.97;;;2.38;;
20657;SDS011;10488;50.846;4.078;2023-03-23T13:40:53;13.10;;;2.67;;
20657;SDS011;10488;50.846;4.078;2023-03-23T13:43:30;7.65;;;2.20;;
20657;SDS011;10488;50.846;4.078;2023-03-23T13:46:08;11.77;;;2.33;;
20657;SDS011;10488;50.846;4.078;2023-03-23T13:48:47;9.85;;;2.28;;
20657;SDS011;10488;50.846;4.078;2023-03-23T13:51:46;8.45;;;2.13;;
20657;SDS011;10488;50.846;4.078;2023-03-23T14:05:41;5.70;;;1.92;;
20657;SDS011;10488;50.846;4.078;2023-03-23T14:11:29;6.30;;;1.90;;
20657;SDS011;10488;50.846;4.078;2023-03-23T14:16:43;4.15;;;1.67;;
20657;SDS011;10488;50.846;4.078;2023-03-23T14:19:18;6.63;;;1.85;;
20657;SDS011;10488;50.846;4.078;2023-03-23T14:21:52;10.55;;;2.20;;
20657;SDS011;10488;50.846;4.078;2023-03-23T14:24:21;9.18;;;1.73;;
20657;SDS011;10488;50.846;4.078;2023-03-23T14:27:10;7.50;;;2.00;;
20657;SDS011;10488;50.846;4.078;2023-03-23T14:29:39;12.73;;;2.45;;
20657;SDS011;10488;50.846;4.078;2023-03-23T14:32:06;10.30;;;2.38;;
20657;SDS011;10488;50.846;4.078;2023-03-23T14:34:37;11.98;;;2.38;;
20657;SDS011;10488;50.846;4.078;2023-03-23T14:37:02;10.15;;;2.42;;
20657;SDS011;10488;50.846;4.078;2023-03-23T14:39:30;9.68;;;2.90;;
20657;SDS011;10488;50.846;4.078;2023-03-23T14:42:03;10.43;;;2.35;;
20657;SDS011;10488;50.846;4.078;2023-03-23T14:44:34;11.45;;;2.40;;
20657;SDS011;10488;50.846;4.078;2023-03-23T14:47:04;13.25;;;3.13;;
20657;SDS011;10488;50.846;4.078;2023-03-23T14:49:33;12.57;;;2.63;;
20657;SDS011;10488;50.846;4.078;2023-03-23T14:52:13;6.80;;;2.20;;
20657;SDS011;10488;50.846;4.078;2023-03-23T14:54:41;9.77;;;2.40;;
20657;SDS011;10488;50.846;4.078;2023-03-23T14:57:13;6.50;;;1.77;;
20657;SDS011;10488;50.846;4.078;2023-03-23T14:59:41;10.10;;;2.35;;
20657;SDS011;10488;50.846;4.078;2023-03-23T15:02:54;9.18;;;2.42;;
20657;SDS011;10488;50.846;4.078;2023-03-23T15:05:08;8.45;;;2.25;;
20657;SDS011;10488;50.846;4.078;2023-03-23T15:07:42;8.57;;;2.08;;
20657;SDS011;10488;50.846;4.078;2023-03-23T15:10:10;9.75;;;1.90;;
20657;SDS011;10488;50.846;4.078;2023-03-23T15:12:43;10.10;;;2.13;;
20657;SDS011;10488;50.846;4.078;2023-03-23T15:15:21;8.27;;;2.83;;
20657;SDS011;10488;50.846;4.078;2023-03-23T15:17:50;13.02;;;2.40;;
20657;SDS011;10488;50.846;4.078;2023-03-23T15:22:47;10.40;;;3.13;;
20657;SDS011;10488;50.846;4.078;2023-03-23T15:25:21;8.23;;;2.60;;
20657;SDS011;10488;50.846;4.078;2023-03-23T15:27:54;7.15;;;3.00;;
20657;SDS011;10488;50.846;4.078;2023-03-23T15:32:54;7.00;;;2.58;;
20657;SDS011;10488;50.846;4.078;2023-03-23T15:35:35;8.73;;;2.50;;
20657;SDS011;10488;50.846;4.078;2023-03-23T15:38:06;11.38;;;2.65;;
20657;SDS011;10488;50.846;4.078;2023-03-23T15:40:43;9.60;;;2.58;;
20657;SDS011;10488;50.846;4.078;2023-03-23T15:48:46;8.38;;;2.95;;
20657;SDS011;10488;50.846;4.078;2023-03-23T15:51:19;11.00;;;2.38;;
20657;SDS011;10488;50.846;4.078;2023-03-23T15:53:47;11.30;;;3.13;;
20657;SDS011;10488;50.846;4.078;2023-03-23T15:56:14;9.63;;;2.38;;
20657;SDS011;10488;50.846;4.078;2023-03-23T15:58:40;15.23;;;2.78;;
20657;SDS011;10488;50.846;4.078;2023-03-23T16:01:13;7.95;;;2.33;;
20657;SDS011;10488;50.846;4.078;2023-03-23T16:06:17;10.73;;;2.70;;
20657;SDS011;10488;50.846;4.078;2023-03-23T16:08:44;8.30;;;2.55;;
20657;SDS011;10488;50.846;4.078;2023-03-23T16:11:11;8.65;;;2.25;;
20657;SDS011;10488;50.846;4.078;2023-03-23T16:13:41;7.10;;;2.35;;
20657;SDS011;10488;50.846;4.078;2023-03-23T16:16:16;8.43;;;2.22;;
20657;SDS011;10488;50.846;4.078;2023-03-23T16:18:45;6.50;;;2.03;;
20657;SDS011;10488;50.846;4.078;2023-03-23T16:21:10;7.90;;;2.13;;
20657;SDS011;10488;50.846;4.078;2023-03-23T16:23:36;8.63;;;2.05;;
20657;SDS011;10488;50.846;4.078;2023-03-23T16:26:02;7.50;;;2.05;;
20657;SDS011;10488;50.846;4.078;2023-03-23T16:28:28;13.55;;;2.50;;
20657;SDS011;10488;50.846;4.078;2023-03-23T16:30:54;6.22;;;2.33;;
20657;SDS011;10488;50.846;4.078;2023-03-23T16:33:20;10.18;;;2.55;;
20657;SDS011;10488;50.846;4.078;2023-03-23T16:35:46;11.93;;;2.25;;
20657;SDS011;10488;50.846;4.078;2023-03-23T16:38:12;8.73;;;2.50;;
20657;SDS011;10488;50.846;4.078;2023-03-23T16:40:40;8.63;;;2.15;;
20657;SDS011;10488;50.846;4.078;2023-03-23T16:43:09;7.68;;;1.95;;
20657;SDS011;10488;50.846;4.078;2023-03-23T16:45:36;9.13;;;2.10;;
20657;SDS011;10488;50.846;4.078;2023-03-23T16:48:04;12.95;;;2.50;;
20657;SDS011;10488;50.846;4.078;2023-03-23T16:50:30;8.57;;;2.03;;
20657;SDS011;10488;50.846;4.078;2023-03-23T16:52:56;10.48;;;2.33;;
20657;SDS011;10488;50.846;4.078;2023-03-23T16:55:23;13.25;;;2.60;;
20657;SDS011;10488;50.846;4.078;2023-03-23T16:57:50;13.15;;;2.20;;
20657;SDS011;10488;50.846;4.078;2023-03-23T17:00:16;7.93;;;2.50;;
20657;SDS011;10488;50.846;4.078;2023-03-23T17:02:47;8.68;;;2.60;;
20657;SDS011;10488;50.846;4.078;2023-03-23T17:05:16;11.25;;;2.78;;
20657;SDS011;10488;50.846;4.078;2023-03-23T17:07:45;10.30;;;2.80;;
20657;SDS011;10488;50.846;4.078;2023-03-23T17:10:11;13.45;;;2.60;;
20657;SDS011;10488;50.846;4.078;2023-03-23T17:12:38;12.98;;;3.38;;
20657;SDS011;10488;50.846;4.078;2023-03-23T17:15:05;7.55;;;2.97;;
20657;SDS011;10488;50.846;4.078;2023-03-23T17:17:32;11.10;;;2.65;;
20657;SDS011;10488;50.846;4.078;2023-03-23T17:19:58;13.32;;;2.88;;
20657;SDS011;10488;50.846;4.078;2023-03-23T17:22:23;10.52;;;3.22;;
20657;SDS011;10488;50.846;4.078;2023-03-23T17:24:50;8.57;;;3.20;;
20657;SDS011;10488;50.846;4.078;2023-03-23T17:27:16;13.93;;;3.13;;